createdAt,value
2022-10-13T00:00:15.076Z,10.40
2022-10-13T00:01:15.152Z,10.50
2022-10-13T00:02:15.054Z,10.10
2022-10-13T00:03:15.045Z,10.00
2022-10-13T00:04:15.046Z,10.20
2022-10-13T00:05:15.015Z,9.80
2022-10-13T00:06:15.010Z,10.90
2022-10-13T00:07:15.000Z,10.80
2022-10-13T00:08:14.982Z,10.00
2022-10-13T00:09:15.009Z,10.50
2022-10-13T00:10:14.982Z,10.00
2022-10-13T00:11:14.986Z,10.10
2022-10-13T00:12:15.000Z,9.80
2022-10-13T00:13:14.932Z,9.80
2022-10-13T00:14:14.915Z,9.60
2022-10-13T00:15:14.917Z,10.30
2022-10-13T00:16:15.054Z,10.00
2022-10-13T00:17:14.883Z,9.80
2022-10-13T00:18:14.868Z,10.10
2022-10-13T00:19:15.255Z,10.10
2022-10-13T00:20:14.856Z,10.30
2022-10-13T00:21:14.850Z,9.50
2022-10-13T00:22:14.869Z,10.50
2022-10-13T00:23:14.874Z,10.00
2022-10-13T00:24:14.810Z,9.60
2022-10-13T00:25:14.808Z,9.80
2022-10-13T00:26:14.798Z,9.10
2022-10-13T00:27:14.773Z,9.70
2022-10-13T00:28:14.845Z,9.20
2022-10-13T00:29:14.764Z,9.30
2022-10-13T00:30:14.739Z,9.90
2022-10-13T00:31:14.741Z,9.80
2022-10-13T00:32:14.726Z,9.40
2022-10-13T00:33:14.741Z,10.50
2022-10-13T00:34:14.705Z,10.10
2022-10-13T00:35:14.702Z,10.10
2022-10-13T00:36:14.683Z,10.00
2022-10-13T00:37:14.674Z,10.20
2022-10-13T00:38:14.655Z,9.40
2022-10-13T00:39:14.682Z,9.90
2022-10-13T00:40:14.661Z,9.20
2022-10-13T00:41:14.665Z,9.80
2022-10-13T00:42:14.623Z,9.10
2022-10-13T00:43:14.613Z,9.10
2022-10-13T00:44:14.606Z,10.10
2022-10-13T00:45:14.606Z,9.50
2022-10-13T00:46:14.573Z,9.10
2022-10-13T00:47:14.556Z,9.80
2022-10-13T00:48:14.556Z,9.20
2022-10-13T00:49:14.575Z,9.70
2022-10-13T00:50:14.523Z,10.10
2022-10-13T00:51:14.519Z,9.80
2022-10-13T00:52:14.506Z,9.50
2022-10-13T00:53:14.496Z,9.10
2022-10-13T00:54:14.485Z,9.40
2022-10-13T00:55:14.506Z,9.30
2022-10-13T00:56:14.458Z,9.50
2022-10-13T00:57:14.464Z,9.20
2022-10-13T00:58:14.434Z,10.30
2022-10-13T00:59:14.454Z,9.70
2022-10-13T01:00:14.415Z,9.90
2022-10-13T01:01:14.491Z,10.20
2022-10-13T01:02:14.393Z,9.90
2022-10-13T01:03:14.386Z,9.40
2022-10-13T01:04:14.401Z,9.80
2022-10-13T01:05:14.368Z,9.80
2022-10-13T01:06:14.365Z,9.30
2022-10-13T01:07:14.350Z,9.50
2022-10-13T01:08:14.360Z,9.70
2022-10-13T01:09:14.326Z,10.00
2022-10-13T01:10:14.336Z,10.10
2022-10-13T01:11:14.299Z,9.60
2022-10-13T01:12:14.323Z,9.70
2022-10-13T01:13:14.280Z,10.20
2022-10-13T01:14:14.292Z,9.70
2022-10-13T01:15:14.252Z,9.70
2022-10-13T01:16:14.264Z,10.20
2022-10-13T01:17:14.231Z,9.50
2022-10-13T01:18:14.212Z,10.00
2022-10-13T01:19:14.217Z,10.20
2022-10-13T01:20:14.251Z,9.60
2022-10-13T01:21:14.193Z,10.50
2022-10-13T01:22:14.210Z,9.30
2022-10-13T01:23:14.165Z,9.40
2022-10-13T01:24:14.151Z,9.70
2022-10-13T01:25:14.169Z,9.90
2022-10-13T01:26:14.149Z,10.20
2022-10-13T01:27:14.114Z,9.40
2022-10-13T01:28:14.167Z,9.80
2022-10-13T01:29:14.144Z,9.80
2022-10-13T01:30:14.089Z,9.40
2022-10-13T01:31:14.105Z,9.40
2022-10-13T01:32:14.074Z,9.30
2022-10-13T01:33:14.069Z,9.70
2022-10-13T01:34:14.034Z,9.70
2022-10-13T01:35:14.075Z,9.70
2022-10-13T01:36:14.021Z,9.20
2022-10-13T01:37:14.034Z,9.50
2022-10-13T01:38:13.988Z,9.60
2022-10-13T01:39:14.002Z,9.50
2022-10-13T01:40:13.977Z,9.50
2022-10-13T01:41:13.979Z,10.30
2022-10-13T01:42:13.973Z,9.50
2022-10-13T01:43:13.949Z,9.20
2022-10-13T01:44:13.944Z,9.00
2022-10-13T01:45:13.930Z,10.30
2022-10-13T01:46:13.958Z,9.90
2022-10-13T01:47:13.890Z,10.00
2022-10-13T01:48:14.848Z,9.60
2022-10-13T01:49:13.876Z,9.70
2022-10-13T01:50:13.881Z,8.60
2022-10-13T01:51:13.885Z,9.30
2022-10-13T01:52:13.851Z,9.50
2022-10-13T01:53:13.868Z,9.80
2022-10-13T01:54:13.828Z,9.60
2022-10-13T01:55:13.811Z,9.10
2022-10-13T01:56:13.799Z,9.40
2022-10-13T01:57:13.788Z,9.60
2022-10-13T01:58:13.785Z,10.20
2022-10-13T01:59:13.802Z,9.80
2022-10-13T02:00:13.747Z,9.90
2022-10-13T02:01:13.743Z,9.80
2022-10-13T02:02:13.744Z,9.10
2022-10-13T02:03:13.723Z,9.80
2022-10-13T02:04:13.740Z,9.70
2022-10-13T02:05:13.713Z,9.50
2022-10-13T02:06:13.733Z,9.50
2022-10-13T02:07:13.684Z,9.70
2022-10-13T02:08:13.664Z,10.20
2022-10-13T02:09:13.665Z,9.60
2022-10-13T02:10:13.657Z,9.70
2022-10-13T02:11:13.628Z,9.30
2022-10-13T02:12:13.651Z,9.90
2022-10-13T02:13:13.609Z,9.80
2022-10-13T02:14:13.625Z,9.70
2022-10-13T02:15:13.619Z,9.80
2022-10-13T02:16:13.577Z,10.00
2022-10-13T02:17:13.556Z,10.00
2022-10-13T02:18:13.569Z,9.50
2022-10-13T02:19:13.555Z,9.50
2022-10-13T02:20:13.528Z,9.20
2022-10-13T02:21:13.576Z,9.70
2022-10-13T02:22:13.508Z,10.00
2022-10-13T02:23:13.495Z,9.50
2022-10-13T02:24:14.929Z,9.90
2022-10-13T02:25:13.485Z,9.40
2022-10-13T02:26:13.473Z,10.30
2022-10-13T02:27:13.498Z,9.80
2022-10-13T02:28:13.461Z,10.10
2022-10-13T02:29:13.421Z,9.90
2022-10-13T02:30:13.413Z,9.80
2022-10-13T02:31:13.411Z,9.80
2022-10-13T02:32:13.418Z,9.60
2022-10-13T02:33:13.399Z,9.70
2022-10-13T02:34:13.407Z,9.30
2022-10-13T02:35:13.394Z,9.30
2022-10-13T02:36:13.355Z,9.90
2022-10-13T02:37:13.341Z,10.10
2022-10-13T02:38:13.326Z,9.60
2022-10-13T02:39:13.329Z,9.30
2022-10-13T02:40:13.329Z,10.10
2022-10-13T02:41:13.310Z,9.90
2022-10-13T02:42:13.311Z,9.70
2022-10-13T02:43:13.274Z,9.50
2022-10-13T02:44:13.262Z,9.70
2022-10-13T02:45:13.272Z,9.70
2022-10-13T02:46:13.322Z,9.80
2022-10-13T02:47:13.263Z,9.30
2022-10-13T02:48:13.207Z,9.60
2022-10-13T02:49:13.203Z,10.10
2022-10-13T02:50:13.190Z,10.30
2022-10-13T02:51:13.185Z,9.50
2022-10-13T02:52:13.203Z,9.50
2022-10-13T02:53:13.165Z,9.70
2022-10-13T02:54:13.145Z,9.90
2022-10-13T02:55:13.134Z,9.80
2022-10-13T02:56:13.171Z,9.70
2022-10-13T02:57:13.145Z,9.90
2022-10-13T02:58:13.140Z,9.50
2022-10-13T02:59:13.098Z,9.80
2022-10-13T03:00:13.082Z,9.50
2022-10-13T03:01:13.131Z,10.30
2022-10-13T03:02:13.069Z,9.10
2022-10-13T03:03:13.058Z,9.80
2022-10-13T03:04:13.068Z,10.10
2022-10-13T03:05:13.050Z,9.30
2022-10-13T03:06:13.009Z,9.40
2022-10-13T03:07:13.003Z,9.40
2022-10-13T03:08:12.992Z,9.20
2022-10-13T03:09:12.973Z,8.80
2022-10-13T03:10:13.005Z,9.60
2022-10-13T03:11:12.958Z,9.90
2022-10-13T03:12:12.939Z,9.60
2022-10-13T03:13:12.939Z,9.20
2022-10-13T03:14:12.951Z,10.00
2022-10-13T03:15:12.910Z,10.20
2022-10-13T03:16:12.922Z,9.80
2022-10-13T03:17:13.607Z,9.60
2022-10-13T03:18:12.871Z,9.40
2022-10-13T03:19:12.870Z,10.00
2022-10-13T03:20:12.874Z,10.00
2022-10-13T03:21:12.862Z,9.40
2022-10-13T03:22:12.832Z,9.70
2022-10-13T03:23:12.842Z,9.60
2022-10-13T03:24:12.817Z,9.50
2022-10-13T03:25:12.823Z,9.60
2022-10-13T03:26:12.796Z,10.20
2022-10-13T03:27:12.812Z,9.60
2022-10-13T03:28:12.813Z,10.10
2022-10-13T03:29:12.770Z,9.70
2022-10-13T03:30:12.744Z,9.30
2022-10-13T03:31:12.746Z,9.50
2022-10-13T03:32:12.715Z,9.70
2022-10-13T03:33:12.756Z,9.90
2022-10-13T03:34:12.710Z,8.80
2022-10-13T03:35:12.715Z,9.70
2022-10-13T03:36:12.706Z,9.90
2022-10-13T03:37:12.666Z,10.10
2022-10-13T03:38:12.667Z,9.30
2022-10-13T03:39:12.646Z,9.60
2022-10-13T03:40:12.657Z,8.80
2022-10-13T03:41:12.632Z,9.50
2022-10-13T03:42:12.608Z,9.60
2022-10-13T03:43:12.599Z,9.60
2022-10-13T03:44:12.606Z,9.40
2022-10-13T03:45:12.631Z,9.60
2022-10-13T03:46:12.568Z,9.60
2022-10-13T03:47:12.562Z,9.10
2022-10-13T03:48:12.538Z,9.50
2022-10-13T03:49:12.538Z,9.60
2022-10-13T03:50:12.520Z,9.30
2022-10-13T03:51:14.656Z,9.60
2022-10-13T03:52:12.523Z,9.60
2022-10-13T03:53:12.491Z,10.60
2022-10-13T03:54:12.521Z,9.60
2022-10-13T03:55:12.521Z,9.70
2022-10-13T03:56:12.467Z,9.70
2022-10-13T03:57:12.477Z,10.00
2022-10-13T03:58:12.443Z,9.30
2022-10-13T03:59:12.442Z,9.60
2022-10-13T04:00:12.410Z,9.10
2022-10-13T04:01:13.363Z,9.60
2022-10-13T04:02:12.421Z,10.20
2022-10-13T04:03:12.417Z,10.40
2022-10-13T04:04:12.383Z,10.00
2022-10-13T04:05:12.377Z,8.90
2022-10-13T04:06:12.351Z,9.80
2022-10-13T04:07:12.391Z,9.10
2022-10-13T04:08:12.325Z,9.30
2022-10-13T04:09:12.426Z,9.70
2022-10-13T04:10:13.759Z,9.30
2022-10-13T04:11:12.308Z,9.60
2022-10-13T04:12:14.281Z,9.10
2022-10-13T04:13:12.267Z,9.20
2022-10-13T04:14:12.259Z,9.60
2022-10-13T04:15:12.258Z,9.50
2022-10-13T04:16:12.247Z,9.40
2022-10-13T04:17:12.671Z,9.80
2022-10-13T04:18:12.335Z,9.00
2022-10-13T04:19:12.239Z,9.70
2022-10-13T04:20:12.189Z,9.30
2022-10-13T04:21:12.206Z,10.10
2022-10-13T04:22:13.143Z,9.80
2022-10-13T04:23:12.188Z,9.90
2022-10-13T04:24:12.151Z,9.40
2022-10-13T04:25:12.146Z,9.40
2022-10-13T04:26:12.177Z,9.70
2022-10-13T04:27:12.119Z,9.50
2022-10-13T04:28:12.133Z,9.10
2022-10-13T04:29:12.097Z,9.30
2022-10-13T04:30:13.568Z,9.60
2022-10-13T04:31:12.102Z,9.50
2022-10-13T04:32:12.064Z,9.40
2022-10-13T04:33:12.052Z,9.70
2022-10-13T04:34:12.042Z,10.00
2022-10-13T04:35:12.092Z,9.90
2022-10-13T04:36:12.029Z,9.80
2022-10-13T04:37:12.811Z,9.80
2022-10-13T04:38:12.003Z,9.60
2022-10-13T04:39:11.995Z,8.90
2022-10-13T04:40:11.986Z,10.00
2022-10-13T04:41:11.997Z,9.60
2022-10-13T04:42:11.966Z,10.20
2022-10-13T04:43:11.957Z,9.90
2022-10-13T04:44:11.943Z,9.60
2022-10-13T04:45:11.925Z,10.00
2022-10-13T04:46:11.936Z,9.00
2022-10-13T04:47:11.902Z,9.80
2022-10-13T04:48:11.923Z,9.40
2022-10-13T04:49:11.934Z,9.50
2022-10-13T04:50:11.888Z,9.40
2022-10-13T04:51:11.856Z,9.30
2022-10-13T04:52:13.306Z,9.10
2022-10-13T04:53:15.435Z,9.30
2022-10-13T04:54:13.007Z,9.50
2022-10-13T04:55:11.817Z,9.40
2022-10-13T04:56:11.794Z,9.90
2022-10-13T04:57:11.795Z,9.80
2022-10-13T04:58:11.776Z,9.60
2022-10-13T04:59:11.767Z,9.00
2022-10-13T05:00:11.779Z,9.40
2022-10-13T05:01:11.785Z,8.70
2022-10-13T05:02:11.743Z,9.40
2022-10-13T05:03:11.717Z,9.80
2022-10-13T05:04:11.718Z,9.40
2022-10-13T05:05:11.724Z,9.40
2022-10-13T05:06:11.723Z,9.40
2022-10-13T05:07:19.130Z,8.90
2022-10-13T05:08:12.726Z,8.80
2022-10-13T05:09:11.670Z,9.60
2022-10-13T05:10:11.660Z,9.80
2022-10-13T05:11:11.649Z,9.70
2022-10-13T05:12:11.642Z,8.80
2022-10-13T05:13:11.658Z,9.40
2022-10-13T05:14:11.639Z,9.10
2022-10-13T05:15:11.708Z,9.20
2022-10-13T05:16:11.681Z,9.60
2022-10-13T05:17:11.602Z,9.30
2022-10-13T05:18:12.516Z,9.00
2022-10-13T05:19:15.313Z,9.80
2022-10-13T05:20:11.549Z,9.90
2022-10-13T05:21:11.523Z,9.10
2022-10-13T05:22:11.557Z,9.60
2022-10-13T05:23:11.522Z,8.60
2022-10-13T05:24:11.498Z,9.00
2022-10-13T05:25:11.485Z,9.20
2022-10-13T05:26:11.471Z,8.80
2022-10-13T05:27:11.481Z,9.50
2022-10-13T05:28:11.509Z,9.70
2022-10-13T05:29:11.465Z,9.50
2022-10-13T05:30:11.437Z,9.50
2022-10-13T05:31:11.410Z,9.60
2022-10-13T05:32:11.410Z,9.70
2022-10-13T05:33:11.385Z,9.70
2022-10-13T05:34:11.415Z,9.40
2022-10-13T05:35:12.820Z,8.90
2022-10-13T05:36:11.450Z,9.50
2022-10-13T05:37:12.804Z,9.00
2022-10-13T05:38:11.471Z,9.40
2022-10-13T05:39:11.438Z,9.20
2022-10-13T05:40:11.333Z,9.80
2022-10-13T05:41:11.287Z,9.90
2022-10-13T05:42:11.307Z,9.50
2022-10-13T05:43:11.289Z,9.10
2022-10-13T05:44:11.290Z,9.00
2022-10-13T05:45:11.311Z,9.10
2022-10-13T05:46:11.403Z,9.10
2022-10-13T05:47:11.288Z,9.40
2022-10-13T05:48:11.675Z,9.50
2022-10-13T05:49:12.695Z,9.20
2022-10-13T05:50:11.389Z,9.20
2022-10-13T05:51:11.667Z,8.90
2022-10-13T05:52:11.227Z,9.10
2022-10-13T05:53:11.171Z,8.90
2022-10-13T05:54:11.161Z,9.40
2022-10-13T05:55:11.163Z,9.00
2022-10-13T05:56:11.163Z,9.30
2022-10-13T05:57:11.362Z,8.90
2022-10-13T05:58:11.117Z,8.90
2022-10-13T05:59:11.107Z,8.90
2022-10-13T06:00:11.079Z,9.20
2022-10-13T06:01:11.106Z,9.40
2022-10-13T06:02:11.159Z,9.70
2022-10-13T06:03:11.045Z,9.40
2022-10-13T06:04:12.513Z,9.10
2022-10-13T06:05:11.036Z,8.50
2022-10-13T06:06:11.171Z,8.50
2022-10-13T06:07:11.047Z,8.60
2022-10-13T06:08:11.043Z,8.40
2022-10-13T06:09:10.987Z,9.40
2022-10-13T06:10:10.977Z,8.80
2022-10-13T06:11:10.969Z,9.00
2022-10-13T06:12:10.955Z,9.50
2022-10-13T06:13:10.957Z,9.40
2022-10-13T06:14:10.986Z,8.40
2022-10-13T06:15:10.939Z,9.00
2022-10-13T06:16:10.938Z,8.90
2022-10-13T06:17:10.917Z,9.40
2022-10-13T06:18:10.910Z,8.90
2022-10-13T06:19:10.961Z,8.80
2022-10-13T06:20:10.883Z,9.30
2022-10-13T06:21:10.861Z,8.40
2022-10-13T06:22:11.805Z,8.40
2022-10-13T06:23:10.829Z,9.20
2022-10-13T06:24:10.849Z,8.40
2022-10-13T06:25:10.840Z,8.70
2022-10-13T06:26:10.828Z,9.30
2022-10-13T06:27:10.817Z,8.70
2022-10-13T06:28:10.780Z,8.70
2022-10-13T06:29:10.799Z,8.10
2022-10-13T06:30:10.750Z,8.80
2022-10-13T06:31:10.774Z,8.10
2022-10-13T06:32:10.758Z,8.50
2022-10-13T06:33:10.725Z,8.50
2022-10-13T06:34:10.736Z,8.70
2022-10-13T06:35:10.698Z,8.60
2022-10-13T06:36:10.687Z,8.50
2022-10-13T06:37:10.714Z,8.20
2022-10-13T06:38:10.681Z,8.80
2022-10-13T06:39:10.675Z,8.50
2022-10-13T06:40:10.631Z,8.50
2022-10-13T06:41:10.638Z,8.50
2022-10-13T06:42:10.815Z,8.60
2022-10-13T06:43:10.621Z,8.80
2022-10-13T06:44:10.672Z,8.00
2022-10-13T06:45:10.611Z,8.80
2022-10-13T06:46:10.587Z,9.10
2022-10-13T06:47:11.374Z,8.90
2022-10-13T06:48:10.559Z,8.80
2022-10-13T06:49:10.544Z,8.80
2022-10-13T06:50:10.536Z,8.70
2022-10-13T06:51:10.528Z,8.90
2022-10-13T06:52:10.542Z,8.80
2022-10-13T06:53:10.531Z,8.40
2022-10-13T06:54:10.494Z,8.50
2022-10-13T06:55:10.501Z,8.50
2022-10-13T06:56:10.480Z,8.70
2022-10-13T06:57:10.457Z,8.70
2022-10-13T06:58:10.490Z,8.50
2022-10-13T06:59:10.445Z,8.70
2022-10-13T07:00:10.447Z,9.30
2022-10-13T07:01:10.438Z,8.30
2022-10-13T07:02:10.449Z,8.80
2022-10-13T07:03:10.394Z,8.70
2022-10-13T07:04:10.381Z,8.90
2022-10-13T07:05:10.377Z,8.30
2022-10-13T07:06:10.368Z,9.10
2022-10-13T07:07:10.390Z,8.80
2022-10-13T07:08:11.005Z,9.50
2022-10-13T07:09:10.977Z,8.90
2022-10-13T07:10:10.329Z,9.00
2022-10-13T07:11:15.343Z,9.40
2022-10-13T07:12:11.349Z,9.10
2022-10-13T07:13:10.304Z,9.10
2022-10-13T07:14:10.525Z,8.80
2022-10-13T07:15:10.261Z,8.20
2022-10-13T07:16:10.241Z,8.20
2022-10-13T07:17:10.240Z,9.20
2022-10-13T07:18:10.265Z,8.50
2022-10-13T07:19:10.216Z,8.60
2022-10-13T07:20:10.358Z,8.10
2022-10-13T07:21:10.270Z,8.90
2022-10-13T07:22:10.255Z,8.70
2022-10-13T07:23:10.169Z,8.20
2022-10-13T07:24:10.197Z,8.80
2022-10-13T07:25:10.251Z,9.20
2022-10-13T07:26:10.151Z,9.20
2022-10-13T07:27:10.129Z,9.00
2022-10-13T07:28:10.235Z,9.10
2022-10-13T07:29:10.101Z,8.90
2022-10-13T07:30:11.015Z,8.90
2022-10-13T07:31:10.565Z,8.60
2022-10-13T07:32:10.088Z,8.90
2022-10-13T07:33:10.062Z,9.30
2022-10-13T07:34:10.050Z,9.60
2022-10-13T07:35:10.054Z,9.00
2022-10-13T07:36:10.025Z,9.40
2022-10-13T07:37:10.025Z,9.60
2022-10-13T07:38:10.007Z,9.00
2022-10-13T07:39:10.001Z,9.10
2022-10-13T07:40:09.998Z,9.90
2022-10-13T07:41:09.966Z,9.70
2022-10-13T07:42:09.966Z,9.00
2022-10-13T07:43:09.941Z,9.50
2022-10-13T07:44:09.954Z,9.20
2022-10-13T07:45:09.949Z,9.50
2022-10-13T07:46:09.968Z,9.20
2022-10-13T07:47:09.919Z,9.00
2022-10-13T07:48:09.921Z,9.30
2022-10-13T07:49:12.367Z,9.00
2022-10-13T07:50:10.939Z,9.00
2022-10-13T07:51:09.861Z,8.90
2022-10-13T07:52:09.861Z,8.70
2022-10-13T07:53:09.820Z,9.00
2022-10-13T07:54:09.867Z,8.50
2022-10-13T07:55:09.833Z,8.60
2022-10-13T07:56:09.855Z,8.80
2022-10-13T07:57:09.817Z,9.00
2022-10-13T07:58:09.793Z,8.80
2022-10-13T07:59:09.763Z,9.00
2022-10-13T08:00:09.799Z,8.90
2022-10-13T08:01:09.751Z,9.20
2022-10-13T08:02:09.750Z,9.10
2022-10-13T08:03:09.727Z,9.10
2022-10-13T08:04:09.718Z,8.50
2022-10-13T08:05:09.691Z,8.60
2022-10-13T08:06:09.715Z,8.70
2022-10-13T08:07:09.695Z,8.60
2022-10-13T08:08:09.682Z,8.30
2022-10-13T08:09:09.656Z,8.20
2022-10-13T08:10:09.677Z,8.50
2022-10-13T08:11:10.642Z,8.70
2022-10-13T08:12:09.781Z,8.80
2022-10-13T08:13:09.615Z,8.20
2022-10-13T08:14:09.597Z,8.00
2022-10-13T08:15:09.595Z,8.40
2022-10-13T08:16:09.579Z,9.20
2022-10-13T08:17:09.581Z,8.80
2022-10-13T08:18:09.610Z,8.00
2022-10-13T08:19:09.609Z,9.00
2022-10-13T08:20:09.538Z,8.80
2022-10-13T08:21:39.316Z,8.90
2022-10-13T08:22:10.527Z,8.70
2022-10-13T08:23:09.621Z,8.50
2022-10-13T08:24:09.527Z,9.00
2022-10-13T08:25:09.495Z,8.60
2022-10-13T08:26:09.498Z,9.30
2022-10-13T08:27:09.508Z,8.70
2022-10-13T08:28:09.440Z,8.40
2022-10-13T08:29:21.325Z,9.20
2022-10-13T08:30:10.563Z,8.80
2022-10-13T08:31:09.528Z,9.40
2022-10-13T08:32:09.403Z,9.30
2022-10-13T08:33:09.393Z,9.00
2022-10-13T08:34:09.376Z,9.50
2022-10-13T08:35:09.390Z,9.10
2022-10-13T08:36:09.378Z,9.70
2022-10-13T08:37:09.363Z,9.30
2022-10-13T08:38:09.342Z,9.10
2022-10-13T08:39:09.343Z,9.40
2022-10-13T08:40:09.358Z,9.50
2022-10-13T08:41:09.304Z,9.20
2022-10-13T08:42:09.326Z,9.90
2022-10-13T08:43:09.293Z,9.70
2022-10-13T08:45:36.406Z,9.90
2022-10-13T08:46:10.237Z,9.60
2022-10-13T08:47:09.265Z,9.60
2022-10-13T08:48:09.897Z,9.60
2022-10-13T08:49:09.223Z,9.60
2022-10-13T08:50:10.179Z,9.40
2022-10-13T08:51:09.206Z,9.20
2022-10-13T08:52:09.181Z,11.20
2022-10-13T08:53:16.361Z,10.80
2022-10-13T08:54:09.167Z,10.10
2022-10-13T08:55:09.175Z,10.40
2022-10-13T08:56:09.842Z,9.50
2022-10-13T08:57:09.132Z,10.60
2022-10-13T08:58:09.159Z,9.90
2022-10-13T08:59:09.538Z,9.30
2022-10-13T09:00:09.108Z,9.60
2022-10-13T09:01:09.478Z,9.20
2022-10-13T09:02:09.137Z,9.90
2022-10-13T09:03:09.074Z,9.00
2022-10-13T09:04:09.374Z,9.70
2022-10-13T09:05:09.351Z,9.20
2022-10-13T09:06:09.159Z,8.70
2022-10-13T09:07:09.281Z,9.50
2022-10-13T09:08:09.554Z,9.60
2022-10-13T09:09:09.204Z,9.10
2022-10-13T09:10:09.046Z,8.70
2022-10-13T09:11:09.083Z,9.30
2022-10-13T09:12:09.014Z,8.90
2022-10-13T09:13:08.974Z,9.10
2022-10-13T09:14:10.428Z,8.80
2022-10-13T09:15:09.032Z,9.30
2022-10-13T09:16:09.085Z,9.40
2022-10-13T09:17:10.389Z,9.00
2022-10-13T09:18:09.128Z,8.60
2022-10-13T09:19:08.992Z,8.90
2022-10-13T09:20:10.324Z,8.80
2022-10-13T09:21:08.956Z,9.00
2022-10-13T09:22:10.320Z,8.70
2022-10-13T09:23:08.863Z,8.30
2022-10-13T09:24:09.239Z,9.00
2022-10-13T09:25:08.825Z,8.90
2022-10-13T09:26:10.275Z,8.30
2022-10-13T09:27:09.349Z,9.10
2022-10-13T09:28:09.351Z,9.00
2022-10-13T09:29:10.234Z,7.90
2022-10-13T09:30:09.446Z,8.40
2022-10-13T09:31:11.722Z,8.60
2022-10-13T09:32:09.774Z,8.30
2022-10-13T09:33:10.922Z,8.70
2022-10-13T09:34:08.719Z,8.50
2022-10-13T09:35:08.716Z,8.10
2022-10-13T09:36:09.562Z,8.40
2022-10-13T09:37:09.639Z,8.20
2022-10-13T09:38:08.697Z,8.00
2022-10-13T09:39:08.858Z,9.00
2022-10-13T09:40:08.924Z,8.90
2022-10-13T09:41:08.642Z,8.40
2022-10-13T09:42:08.627Z,8.70
2022-10-13T09:43:08.628Z,9.00
2022-10-13T09:44:08.624Z,9.10
2022-10-13T09:45:08.626Z,9.10
2022-10-13T09:46:08.586Z,8.30
2022-10-13T09:47:09.001Z,8.30
2022-10-13T09:48:08.571Z,8.60
2022-10-13T09:49:08.616Z,8.70
2022-10-13T09:50:08.555Z,8.90
2022-10-13T09:51:08.828Z,8.80
2022-10-13T09:52:08.605Z,8.00
2022-10-13T09:53:09.141Z,8.30
2022-10-13T09:54:08.525Z,7.50
2022-10-13T09:55:08.518Z,8.40
2022-10-13T09:56:09.967Z,8.80
2022-10-13T09:57:08.506Z,8.60
2022-10-13T09:58:08.550Z,8.20
2022-10-13T09:59:08.928Z,8.40
2022-10-13T10:00:08.487Z,7.90
2022-10-13T10:01:08.649Z,8.20
2022-10-13T10:02:08.413Z,8.10
2022-10-13T10:03:09.092Z,8.50
2022-10-13T10:04:08.476Z,8.00
2022-10-13T10:05:08.927Z,8.50
2022-10-13T10:06:08.364Z,7.80
2022-10-13T10:07:08.449Z,7.80
2022-10-13T10:08:08.727Z,8.50
2022-10-13T10:09:08.338Z,8.60
2022-10-13T10:10:08.868Z,8.10
2022-10-13T10:11:08.400Z,8.60
2022-10-13T10:12:08.900Z,8.20
2022-10-13T10:13:08.303Z,8.20
2022-10-13T10:14:08.328Z,7.90
2022-10-13T10:15:08.289Z,8.30
2022-10-13T10:16:08.290Z,7.50
2022-10-13T10:17:08.253Z,7.70
2022-10-13T10:18:08.230Z,8.20
2022-10-13T10:19:08.221Z,7.80
2022-10-13T10:20:08.214Z,8.10
2022-10-13T10:21:08.613Z,7.80
2022-10-13T10:22:14.737Z,7.90
2022-10-13T10:23:09.039Z,7.70
2022-10-13T10:24:08.929Z,8.20
2022-10-13T10:25:08.155Z,8.10
2022-10-13T10:26:08.238Z,7.40
2022-10-13T10:27:08.239Z,7.70
2022-10-13T10:28:08.214Z,7.90
2022-10-13T10:29:08.145Z,8.00
2022-10-13T10:30:08.120Z,7.50
2022-10-13T10:31:08.129Z,7.60
2022-10-13T10:32:08.070Z,7.70
2022-10-13T10:33:08.108Z,7.90
2022-10-13T10:34:08.073Z,7.60
2022-10-13T10:35:08.058Z,7.60
2022-10-13T10:36:08.038Z,7.60
2022-10-13T10:37:08.038Z,7.90
2022-10-13T10:38:08.022Z,7.40
2022-10-13T10:39:08.033Z,8.20
2022-10-13T10:40:07.997Z,8.10
2022-10-13T10:41:07.999Z,7.90
2022-10-13T10:42:08.824Z,8.60
2022-10-13T10:43:07.969Z,7.90
2022-10-13T10:44:08.080Z,7.50
2022-10-13T10:45:07.940Z,7.20
2022-10-13T10:46:07.998Z,7.30
2022-10-13T10:47:07.900Z,8.00
2022-10-13T10:48:07.919Z,7.80
2022-10-13T10:49:07.928Z,8.20
2022-10-13T10:50:07.929Z,7.80
2022-10-13T10:51:08.822Z,7.80
2022-10-13T10:52:07.890Z,7.90
2022-10-13T10:53:08.089Z,7.50
2022-10-13T10:54:08.045Z,8.00
2022-10-13T10:55:08.650Z,7.50
2022-10-13T10:56:07.824Z,7.70
2022-10-13T10:57:08.063Z,7.40
2022-10-13T10:58:08.065Z,7.20
2022-10-13T10:59:07.830Z,7.50
2022-10-13T11:00:07.956Z,7.30
2022-10-13T11:01:07.999Z,7.70
2022-10-13T11:02:07.747Z,7.40
2022-10-13T11:03:07.766Z,7.40
2022-10-13T11:04:09.184Z,7.50
2022-10-13T11:05:07.796Z,8.00
2022-10-13T11:06:09.157Z,7.80
2022-10-13T11:07:07.698Z,7.70
2022-10-13T11:08:07.735Z,7.50
2022-10-13T11:09:08.073Z,7.60
2022-10-13T11:10:08.626Z,7.80
2022-10-13T11:11:08.597Z,7.50
2022-10-13T11:12:07.637Z,7.80
2022-10-13T11:13:07.618Z,8.00
2022-10-13T11:14:07.672Z,7.90
2022-10-13T11:15:07.776Z,7.80
2022-10-13T11:16:07.599Z,7.60
2022-10-13T11:17:07.584Z,8.00
2022-10-13T11:18:09.040Z,7.70
2022-10-13T11:19:07.561Z,7.90
2022-10-13T11:20:07.564Z,7.60
2022-10-13T11:21:07.546Z,7.80
2022-10-13T11:22:07.544Z,7.40
2022-10-13T11:23:07.519Z,7.60
2022-10-13T11:24:07.505Z,7.40
2022-10-13T11:25:08.330Z,8.10
2022-10-13T11:26:07.595Z,8.10
2022-10-13T11:27:07.487Z,8.10
2022-10-13T11:28:08.913Z,8.10
2022-10-13T11:29:07.457Z,7.70
2022-10-13T11:30:07.497Z,7.60
2022-10-13T11:31:07.425Z,7.50
2022-10-13T11:32:07.529Z,8.00
2022-10-13T11:33:07.504Z,7.70
2022-10-13T11:34:07.470Z,7.50
2022-10-13T11:35:07.426Z,7.60
2022-10-13T11:36:07.428Z,7.10
2022-10-13T11:37:07.365Z,7.30
2022-10-13T11:38:08.415Z,7.50
2022-10-13T11:39:07.345Z,7.80
2022-10-13T11:40:07.336Z,8.20
2022-10-13T11:41:07.329Z,8.00
2022-10-13T11:42:07.350Z,7.40
2022-10-13T11:43:08.561Z,7.30
2022-10-13T11:44:07.279Z,7.40
2022-10-13T11:45:07.275Z,7.20
2022-10-13T11:46:07.274Z,7.10
2022-10-13T11:47:07.271Z,7.50
2022-10-13T11:48:07.320Z,7.80
2022-10-13T11:49:07.240Z,7.30
2022-10-13T11:50:07.313Z,7.30
2022-10-13T11:51:07.226Z,7.10
2022-10-13T11:52:07.316Z,7.30
2022-10-13T11:53:07.174Z,7.30
2022-10-13T11:54:07.233Z,7.40
2022-10-13T11:55:07.295Z,7.10
2022-10-13T11:56:07.373Z,7.60
2022-10-13T11:57:07.264Z,7.20
2022-10-13T11:58:07.132Z,7.30
2022-10-13T11:59:07.263Z,7.40
2022-10-13T12:00:07.241Z,7.00
2022-10-13T12:01:07.111Z,6.90
2022-10-13T12:02:07.086Z,6.90
2022-10-13T12:03:07.189Z,6.10
2022-10-13T12:04:07.065Z,6.20
2022-10-13T12:05:08.045Z,5.70
2022-10-13T12:06:07.057Z,5.50
2022-10-13T12:07:07.174Z,5.80
2022-10-13T12:08:07.061Z,5.20
2022-10-13T12:09:07.096Z,5.00
2022-10-13T12:10:07.026Z,5.50
2022-10-13T12:11:06.986Z,4.90
2022-10-13T12:12:08.582Z,5.60
2022-10-13T12:13:06.953Z,5.10
2022-10-13T12:14:06.967Z,5.10
2022-10-13T12:15:07.237Z,5.30
2022-10-13T12:16:06.930Z,5.00
2022-10-13T12:17:06.957Z,5.70
2022-10-13T12:18:06.909Z,5.00
2022-10-13T12:19:06.884Z,5.20
2022-10-13T12:20:07.860Z,5.20
2022-10-13T12:21:06.880Z,5.40
2022-10-13T12:22:06.945Z,4.90
2022-10-13T12:23:06.845Z,4.80
2022-10-13T12:24:06.871Z,5.70
2022-10-13T12:25:06.832Z,5.20
2022-10-13T12:26:08.262Z,5.30
2022-10-13T12:27:06.892Z,6.10
2022-10-13T12:28:06.824Z,5.40
2022-10-13T12:29:06.825Z,5.80
2022-10-13T12:30:06.803Z,5.80
2022-10-13T12:31:06.744Z,5.40
2022-10-13T12:32:06.763Z,5.70
2022-10-13T12:33:06.809Z,5.10
2022-10-13T12:34:06.766Z,5.70
2022-10-13T12:35:06.753Z,5.50
2022-10-13T12:36:06.698Z,5.00
2022-10-13T12:37:06.745Z,5.70
2022-10-13T12:38:06.698Z,5.20
2022-10-13T12:39:06.740Z,5.50
2022-10-13T12:40:06.683Z,6.20
2022-10-13T12:41:06.649Z,5.60
2022-10-13T12:42:06.675Z,5.60
2022-10-13T12:43:06.677Z,6.10
2022-10-13T12:44:06.937Z,5.40
2022-10-13T12:45:06.797Z,5.50
2022-10-13T12:46:06.597Z,5.30
2022-10-13T12:47:06.601Z,5.60
2022-10-13T12:48:06.597Z,5.80
2022-10-13T12:49:06.665Z,6.00
2022-10-13T12:50:06.577Z,5.90
2022-10-13T12:51:06.582Z,5.40
2022-10-13T12:52:06.525Z,5.80
2022-10-13T12:53:06.550Z,5.60
2022-10-13T12:54:06.533Z,5.40
2022-10-13T12:55:06.661Z,5.60
2022-10-13T12:56:06.516Z,5.10
2022-10-13T12:57:06.529Z,5.30
2022-10-13T12:58:06.459Z,5.60
2022-10-13T12:59:06.471Z,4.90
2022-10-13T13:00:06.464Z,5.10
2022-10-13T13:01:06.536Z,5.30
2022-10-13T13:02:07.163Z,5.00
2022-10-13T13:03:06.409Z,5.10
2022-10-13T13:04:06.381Z,4.50
2022-10-13T13:05:06.385Z,4.60
2022-10-13T13:06:06.394Z,5.00
2022-10-13T13:07:06.361Z,4.50
2022-10-13T13:08:06.359Z,4.70
2022-10-13T13:09:06.367Z,5.00
2022-10-13T13:10:06.510Z,4.50
2022-10-13T13:11:06.318Z,4.50
2022-10-13T13:12:06.336Z,4.20
2022-10-13T13:13:07.257Z,4.40
2022-10-13T13:14:06.276Z,4.20
2022-10-13T13:15:06.273Z,4.40
2022-10-13T13:16:06.391Z,4.10
2022-10-13T13:17:07.205Z,4.10